METAR Data
IDs: Format: Raw Decoded Include TAF

Data at: 1447 UTC 25 Jan 2020

METAR for:KDCA (Washington/National, VA, US)
Text:KDCA 251352Z 22003KT 10SM -RA BKN010 OVC090 09/08 A2989 RMK AO2 RAE39B44 PRESRR SLP121 P0002 T00890078
Temperature: 8.9°C ( 48°F)
Dewpoint: 7.8°C ( 46°F) [RH = 93%]
Pressure (altimeter):29.89 inches Hg (1012.3 mb) [Sea level pressure: 1012.1 mb]
Winds:from the SW (220 degrees) at 3 MPH (3 knots; 1.5 m/s)
Visibility:10 or more sm (16+ km)
Ceiling:1000 feet AGL
Clouds: broken clouds at 1000 feet AGL, overcast cloud deck at 9000 feet AGL
Weather:-RA (light rain)